Time;durP1;ratioP1;P1;durP2;ratioP2;P2;SDS_P1;SDS_P2;PMS_P1;PMS_P2;Temp;Humidity;BMP_temperature;BMP_pressure;BME280_temperature;BME280_humidity;BME280_pressure;Samples;Min_cycle;Max_cycle;Signal;HPM_P1;HPM_P2
2022/11/27 00:01:43;;;;;;;15.82;6.03;;;;;;;5.00;100.00;102388.56;4988927;28;20821;-62
2022/11/27 00:04:10;;;;;;;12.20;4.93;;;;;;;4.95;100.00;102377.00;4988553;28;20030;-62
2022/11/27 00:06:38;;;;;;;8.93;4.57;;;;;;;4.91;100.00;102375.00;4989357;28;20022;-63
2022/11/27 00:09:06;;;;;;;12.13;4.95;;;;;;;4.91;100.00;102378.44;4988146;28;20038;-62
2022/11/27 00:11:32;;;;;;;10.73;4.15;;;;;;;4.88;100.00;102374.72;4987680;28;20022;-63
2022/11/27 00:13:59;;;;;;;14.25;5.07;;;;;;;4.87;100.00;102380.66;4976064;28;20445;-63
2022/11/27 00:16:25;;;;;;;8.52;4.25;;;;;;;4.82;100.00;102380.31;4989864;28;20025;-62
2022/11/27 00:18:51;;;;;;;12.10;4.10;;;;;;;4.83;100.00;102373.47;4989798;28;20031;-63
2022/11/27 00:21:23;;;;;;;15.27;4.63;;;;;;;4.79;100.00;102373.22;4989413;28;20107;-63
2022/11/27 00:23:50;;;;;;;12.93;5.25;;;;;;;4.77;100.00;102367.06;4988755;28;20034;-64
2022/11/27 00:26:18;;;;;;;10.93;4.45;;;;;;;4.75;100.00;102370.31;4988850;28;20360;-63
2022/11/27 00:28:44;;;;;;;15.02;5.63;;;;;;;4.70;100.00;102359.63;4989284;28;20254;-63
2022/11/27 00:31:18;;;;;;;11.53;5.40;;;;;;;4.66;100.00;102355.03;4988642;28;20425;-64
2022/11/27 00:33:44;;;;;;;13.00;5.40;;;;;;;4.63;100.00;102354.78;4988912;28;20026;-64
2022/11/27 00:36:11;;;;;;;11.05;5.03;;;;;;;4.60;100.00;102349.41;4971596;28;20221;-64
2022/11/27 00:38:37;;;;;;;12.10;5.18;;;;;;;4.59;100.00;102345.94;4988872;28;20037;-64
2022/11/27 00:41:13;;;;;;;11.63;4.67;;;;;;;4.55;100.00;102339.66;4988928;28;20501;-64
2022/11/27 00:43:42;;;;;;;11.20;4.80;;;;;;;4.52;100.00;102339.41;4988889;28;20061;-65
2022/11/27 00:46:11;;;;;;;12.43;4.38;;;;;;;4.49;100.00;102340.84;4989143;28;20030;-64
2022/11/27 00:48:39;;;;;;;13.23;5.03;;;;;;;4.48;100.00;102349.31;4988780;28;20038;-64
2022/11/27 00:51:07;;;;;;;13.93;5.07;;;;;;;4.44;100.00;102343.03;4987446;28;20026;-64
2022/11/27 00:53:33;;;;;;;13.80;4.43;;;;;;;4.40;100.00;102343.56;4986289;28;20526;-65
2022/11/27 00:55:59;;;;;;;12.80;5.60;;;;;;;4.36;100.00;102333.78;4989102;28;20133;-65
2022/11/27 00:58:26;;;;;;;13.33;5.20;;;;;;;4.32;100.00;102333.56;4988508;28;20499;-64
2022/11/27 01:01:06;;;;;;;12.70;5.97;;;;;;;4.29;100.00;102332.41;4988688;28;20033;-64
2022/11/27 01:03:33;;;;;;;11.70;5.03;;;;;;;4.26;100.00;102321.91;4987407;28;20050;-64
2022/11/27 01:06:04;;;;;;;13.60;5.40;;;;;;;4.20;100.00;102317.16;4988325;28;20458;-65
2022/11/27 01:08:32;;;;;;;13.82;5.32;;;;;;;4.16;100.00;102320.22;4976048;28;20225;-64
2022/11/27 01:10:58;;;;;;;10.07;5.27;;;;;;;4.14;100.00;102311.50;4988635;28;20030;-65
2022/11/27 01:13:28;;;;;;;12.60;5.30;;;;;;;4.10;100.00;102304.34;4985581;28;20029;-63
2022/11/27 01:16:11;;;;;;;14.00;5.13;;;;;;;4.07;100.00;102310.09;4977010;28;20451;-64
2022/11/27 01:18:38;;;;;;;13.00;5.30;;;;;;;4.05;100.00;102306.50;4975903;28;20108;-64
2022/11/27 01:21:04;;;;;;;14.73;6.00;;;;;;;4.02;100.00;102296.91;4987578;28;20378;-64
2022/11/27 01:23:30;;;;;;;13.93;6.40;;;;;;;4.00;100.00;102298.44;4988453;28;20030;-64
2022/11/27 01:25:58;;;;;;;15.20;6.60;;;;;;;3.97;100.00;102300.78;4987976;28;20136;-64
2022/11/27 01:28:23;;;;;;;12.90;5.63;;;;;;;3.93;100.00;102312.44;4987310;28;20034;-64
2022/11/27 01:30:50;;;;;;;17.23;6.00;;;;;;;3.89;100.00;102302.69;4988287;28;20037;-64
2022/11/27 01:33:16;;;;;;;12.47;5.77;;;;;;;3.90;100.00;102306.16;4987449;28;20083;-64
2022/11/27 01:35:41;;;;;;;14.43;6.17;;;;;;;3.89;100.00;102300.13;4987191;28;20029;-64
2022/11/27 01:38:06;;;;;;;12.47;5.90;;;;;;;3.87;100.00;102290.53;4987773;28;20041;-64
2022/11/27 01:40:32;;;;;;;14.90;6.10;;;;;;;3.88;100.00;102276.91;4988157;28;20040;-64
2022/11/27 01:42:57;;;;;;;15.33;6.90;;;;;;;3.87;100.00;102272.56;4986651;28;20371;-64
2022/11/27 01:45:22;;;;;;;16.47;7.57;;;;;;;3.83;100.00;102276.56;4987200;28;20398;-63
2022/11/27 01:47:56;;;;;;;15.63;5.73;;;;;;;3.81;100.00;102271.25;4987263;28;20041;-62
2022/11/27 01:50:30;;;;;;;11.77;5.87;;;;;;;3.80;100.00;102269.47;4981550;28;20030;-62
2022/11/27 01:53:00;;;;;;;11.93;6.20;;;;;;;3.79;100.00;102277.97;4987108;28;20058;-62
2022/11/27 01:55:36;;;;;;;11.53;6.50;;;;;;;3.77;100.00;102274.38;4986606;28;20066;-62
2022/11/27 01:58:08;;;;;;;13.27;6.30;;;;;;;3.78;100.00;102267.59;4978263;28;20045;-62
2022/11/27 02:00:35;;;;;;;16.67;6.33;;;;;;;3.80;100.00;102253.19;4976070;28;20073;-62
2022/11/27 02:03:01;;;;;;;15.85;6.32;;;;;;;3.79;100.00;102242.06;4987335;28;20037;-63
2022/11/27 02:05:29;;;;;;;20.00;6.40;;;;;;;3.78;100.00;102224.84;4987061;28;20475;-63
2022/11/27 02:07:58;;;;;;;12.77;6.27;;;;;;;3.78;100.00;102224.84;4987386;28;20030;-62
2022/11/27 02:10:37;;;;;;;15.03;5.57;;;;;;;3.77;100.00;102212.81;4987245;28;20340;-62
2022/11/27 02:13:10;;;;;;;12.10;5.83;;;;;;;3.75;100.00;102216.91;4987652;28;20463;-62
2022/11/27 02:15:57;;;;;;;15.20;5.47;;;;;;;3.76;100.00;102217.81;4986826;28;20022;-63
2022/11/27 02:18:41;;;;;;;11.40;5.27;;;;;;;3.74;100.00;102203.97;4986719;28;20049;-62
2022/11/27 02:21:18;;;;;;;10.73;5.37;;;;;;;3.72;100.00;102194.47;4987459;28;20402;-62
2022/11/27 02:24:02;;;;;;;11.37;5.53;;;;;;;3.71;100.00;102196.91;4987216;28;20034;-62
2022/11/27 02:26:47;;;;;;;15.83;6.00;;;;;;;3.72;100.00;102198.72;4985608;28;20030;-62
2022/11/27 02:29:16;;;;;;;14.50;6.00;;;;;;;3.68;100.00;102186.41;4987298;28;20038;-63
2022/11/27 02:32:07;;;;;;;12.00;5.80;;;;;;;3.67;100.00;102189.75;4985587;28;20130;-63
2022/11/27 02:34:38;;;;;;;14.82;5.82;;;;;;;3.66;100.00;102193.09;4987646;28;20081;-62
2022/11/27 02:37:09;;;;;;;13.38;5.93;;;;;;;3.63;100.00;102195.41;4987208;28;20030;-62
2022/11/27 02:39:43;;;;;;;;;;;;;;;3.63;100.00;102188.63;4987160;28;20026;-62
2022/11/27 02:42:15;;;;;;;9.73;5.33;;;;;;;3.62;100.00;102189.38;4987027;28;19937;-63
2022/11/27 02:44:48;;;;;;;10.53;5.07;;;;;;;3.59;100.00;102179.78;4981440;28;20043;-63
2022/11/27 02:47:14;;;;;;;17.00;6.17;;;;;;;3.59;100.00;102181.44;4991142;28;20038;-63
2022/11/27 02:49:42;;;;;;;11.47;4.97;;;;;;;3.59;100.00;102177.22;4989496;28;20022;-62
2022/11/27 02:52:10;;;;;;;13.77;5.43;;;;;;;3.57;100.00;102170.16;4989456;28;20030;-63
2022/11/27 02:54:38;;;;;;;12.13;5.97;;;;;;;3.57;100.00;102181.31;4990517;28;20022;-62
2022/11/27 02:57:05;;;;;;;11.30;5.57;;;;;;;3.57;100.00;102180.41;4989491;28;20141;-62
2022/11/27 02:59:33;;;;;;;14.10;5.37;;;;;;;3.59;100.00;102186.56;4990669;28;20632;-62
2022/11/27 03:02:07;;;;;;;10.27;4.60;;;;;;;3.58;100.00;102183.09;4990842;28;20030;-63
2022/11/27 03:04:45;;;;;;;13.23;5.07;;;;;;;3.57;100.00;102189.00;4990199;28;20378;-62
2022/11/27 03:07:32;;;;;;;10.20;5.20;;;;;;;3.57;100.00;102183.88;4990197;28;20387;-62
2022/11/27 03:10:03;;;;;;;10.00;5.50;;;;;;;3.58;100.00;102190.78;4990338;28;20034;-62
2022/11/27 03:12:28;;;;;;;12.20;4.65;;;;;;;3.59;100.00;102192.59;4990229;28;20466;-62
2022/11/27 03:14:53;;;;;;;11.13;5.07;;;;;;;3.59;100.00;102195.16;4988819;28;20022;-63
2022/11/27 03:17:41;;;;;;;9.37;4.77;;;;;;;3.60;100.00;102186.69;4990205;28;20018;-63
2022/11/27 03:20:14;;;;;;;10.43;4.90;;;;;;;3.62;100.00;102183.38;4989873;28;20022;-63
2022/11/27 03:22:39;;;;;;;8.70;5.23;;;;;;;3.62;100.00;102179.13;4990495;28;20034;-62
2022/11/27 03:25:05;;;;;;;12.67;5.17;;;;;;;3.64;100.00;102164.75;4975724;28;20019;-62
2022/11/27 03:27:37;;;;;;;9.87;4.30;;;;;;;3.63;100.00;102164.63;4989487;28;20018;-62
2022/11/27 03:30:05;;;;;;;13.47;5.10;;;;;;;3.64;100.00;102168.97;4984425;28;20038;-63
2022/11/27 03:32:31;;;;;;;10.60;4.47;;;;;;;3.66;100.00;102172.56;4989060;28;20093;-63
2022/11/27 03:34:57;;;;;;;13.03;5.10;;;;;;;3.67;100.00;102166.69;4989481;28;20112;-62
2022/11/27 03:37:23;;;;;;;11.93;5.47;;;;;;;3.67;100.00;102167.56;4989792;28;20605;-62
2022/11/27 03:39:49;;;;;;;11.37;5.10;;;;;;;3.68;100.00;102165.91;4989600;28;20105;-63
2022/11/27 03:42:32;;;;;;;11.03;5.83;;;;;;;3.68;100.00;102165.91;4989284;28;20022;-63
2022/11/27 03:45:12;;;;;;;12.20;5.07;;;;;;;3.69;100.00;102162.56;4988651;28;20507;-62
2022/11/27 03:48:02;;;;;;;11.17;5.00;;;;;;;3.68;100.00;102146.31;4989471;28;20034;-62
2022/11/27 03:50:47;;;;;;;18.13;5.32;;;;;;;3.70;100.00;102143.84;4990049;28;20022;-62
2022/11/27 03:53:28;;;;;;;7.57;4.70;;;;;;;3.67;100.00;102138.50;4989599;28;20472;-62
2022/11/27 03:56:08;;;;;;;8.88;4.90;;;;;;;3.68;100.00;102150.53;4989069;28;20486;-62
2022/11/27 03:58:55;;;;;;;10.20;4.70;;;;;;;3.70;100.00;102143.84;4978040;28;20030;-62
2022/11/27 04:01:24;;;;;;;12.13;4.93;;;;;;;3.71;100.00;102138.84;4989921;28;20295;-62
2022/11/27 04:03:49;;;;;;;12.30;5.30;;;;;;;3.72;100.00;102140.63;4989242;28;20372;-62
2022/11/27 04:06:14;;;;;;;14.03;4.83;;;;;;;3.73;100.00;102133.84;4989067;28;20089;-62
2022/11/27 04:08:40;;;;;;;11.10;4.90;;;;;;;3.76;100.00;102143.47;4986035;28;20046;-62
2022/11/27 04:11:06;;;;;;;8.90;4.60;;;;;;;3.76;100.00;102146.91;4980545;28;20088;-62
2022/11/27 04:13:31;;;;;;;9.97;4.63;;;;;;;3.78;100.00;102142.78;4988178;28;20022;-62
2022/11/27 04:15:59;;;;;;;8.20;4.10;;;;;;;3.80;100.00;102148.03;4988530;28;20104;-62
2022/11/27 04:18:25;;;;;;;7.50;4.03;;;;;;;3.82;100.00;102154.19;4988850;28;20054;-62
2022/11/27 04:20:50;;;;;;;9.90;4.30;;;;;;;3.82;100.00;102152.53;4988923;28;20057;-62
2022/11/27 04:23:15;;;;;;;6.97;4.10;;;;;;;3.83;100.00;102161.13;4988756;28;20030;-62
2022/11/27 04:25:41;;;;;;;10.07;4.13;;;;;;;3.84;100.00;102168.03;4989123;28;20022;-62
2022/11/27 04:28:06;;;;;;;9.63;4.40;;;;;;;3.87;100.00;102163.16;4989239;28;20030;-62
2022/11/27 04:30:33;;;;;;;6.13;4.17;;;;;;;3.88;100.00;102162.41;4988592;28;20022;-62
2022/11/27 04:32:58;;;;;;;7.93;4.00;;;;;;;3.90;100.00;102157.41;4988873;28;20022;-62
2022/11/27 04:35:23;;;;;;;8.27;3.97;;;;;;;3.92;100.00;102151.59;4989377;28;20536;-62
2022/11/27 04:37:48;;;;;;;8.60;3.93;;;;;;;3.92;100.00;102148.16;4988310;28;20133;-63
2022/11/27 04:40:14;;;;;;;7.10;3.53;;;;;;;3.93;100.00;102152.50;4989257;28;20227;-62
2022/11/27 04:42:39;;;;;;;6.63;3.20;;;;;;;3.93;100.00;102149.94;4988700;28;20085;-62
2022/11/27 04:45:05;;;;;;;10.03;3.40;;;;;;;3.94;100.00;102159.44;4989131;28;20090;-62
2022/11/27 04:47:30;;;;;;;5.57;3.13;;;;;;;3.95;100.00;102148.41;4986974;28;20039;-62
2022/11/27 04:49:56;;;;;;;6.93;3.50;;;;;;;3.94;100.00;102149.19;4979012;28;20447;-62
2022/11/27 04:52:21;;;;;;;6.27;3.47;;;;;;;3.94;100.00;102150.06;4988591;28;20038;-62
2022/11/27 04:54:46;;;;;;;10.43;3.53;;;;;;;3.94;100.00;102139.78;4987822;28;20104;-62
2022/11/27 04:57:11;;;;;;;7.20;3.33;;;;;;;3.96;100.00;102132.22;4988841;28;20024;-62
2022/11/27 04:59:37;;;;;;;8.10;3.10;;;;;;;3.94;100.00;102124.41;4988640;28;20034;-62
2022/11/27 05:02:03;;;;;;;8.50;3.67;;;;;;;3.95;100.00;102120.19;4988183;28;20034;-62
2022/11/27 05:04:28;;;;;;;8.93;3.30;;;;;;;3.96;100.00;102121.97;4988727;28;20449;-62
2022/11/27 05:06:53;;;;;;;4.43;2.80;;;;;;;3.96;100.00;102121.97;4987602;28;20105;-62
2022/11/27 05:09:19;;;;;;;7.27;2.90;;;;;;;3.97;100.00;102123.75;4988649;28;20122;-62
2022/11/27 05:11:44;;;;;;;7.03;3.00;;;;;;;3.97;100.00;102116.94;4986656;28;20034;-62
2022/11/27 05:14:21;;;;;;;5.17;2.87;;;;;;;3.98;100.00;102107.59;4988563;28;20507;-62
2022/11/27 05:16:49;;;;;;;6.13;2.67;;;;;;;4.00;100.00;102103.47;4987645;28;20022;-62
2022/11/27 05:19:17;;;;;;;7.77;3.20;;;;;;;3.99;100.00;102106.84;4987745;28;20108;-62
2022/11/27 05:21:43;;;;;;;5.73;3.00;;;;;;;3.99;100.00;102101.69;4987994;28;20045;-62
2022/11/27 05:24:09;;;;;;;6.07;2.73;;;;;;;4.01;100.00;102099.25;4988197;28;20038;-63
2022/11/27 05:26:35;;;;;;;5.20;2.67;;;;;;;3.97;100.00;102091.28;4987242;28;20026;-62
2022/11/27 05:29:01;;;;;;;4.90;3.20;;;;;;;4.00;100.00;102097.44;4988050;28;20036;-62
2022/11/27 05:31:26;;;;;;;6.77;3.57;;;;;;;3.98;100.00;102089.63;4988257;28;20467;-62
2022/11/27 05:33:51;;;;;;;6.67;3.10;;;;;;;3.99;100.00;102083.75;4987860;28;20030;-63
2022/11/27 05:36:17;;;;;;;6.50;2.80;;;;;;;3.99;100.00;102078.63;4987241;28;20398;-62
2022/11/27 05:38:42;;;;;;;6.80;3.57;;;;;;;3.95;100.00;102079.13;4987350;28;20072;-62
2022/11/27 05:41:07;;;;;;;6.47;3.40;;;;;;;3.98;100.00;102079.38;4987608;28;20038;-62
2022/11/27 05:43:33;;;;;;;6.70;3.43;;;;;;;3.99;100.00;102086.31;4987831;28;20028;-62
2022/11/27 05:45:58;;;;;;;4.70;3.23;;;;;;;4.00;100.00;102082.97;4987932;28;20467;-62
2022/11/27 05:48:23;;;;;;;8.53;3.30;;;;;;;4.01;100.00;102078.72;4987794;28;20110;-62
2022/11/27 05:50:49;;;;;;;7.23;3.40;;;;;;;4.01;100.00;102068.47;4987609;28;20136;-62
2022/11/27 05:53:14;;;;;;;6.77;3.43;;;;;;;4.01;100.00;102073.59;4987169;28;20089;-62
2022/11/27 05:55:40;;;;;;;7.57;3.27;;;;;;;4.01;100.00;102069.34;4987170;28;20089;-63
2022/11/27 05:58:05;;;;;;;7.87;3.53;;;;;;;4.02;100.00;102068.59;4987704;28;20088;-62
2022/11/27 06:00:30;;;;;;;7.17;3.00;;;;;;;4.01;100.00;102058.22;4987336;28;20022;-62
2022/11/27 06:02:55;;;;;;;6.60;3.50;;;;;;;3.99;100.00;102050.41;4987766;28;20025;-62
2022/11/27 06:05:21;;;;;;;7.37;3.10;;;;;;;4.01;100.00;102042.81;4987519;28;20324;-62
2022/11/27 06:07:47;;;;;;;7.33;3.20;;;;;;;4.01;100.00;102046.25;4987322;28;20030;-62
2022/11/27 06:10:12;;;;;;;8.43;3.13;;;;;;;4.02;100.00;102055.75;4987120;28;20030;-63
2022/11/27 06:12:37;;;;;;;8.00;3.60;;;;;;;4.03;100.00;102047.28;4987274;28;20022;-62
2022/11/27 06:15:03;;;;;;;8.17;3.33;;;;;;;4.05;100.00;102049.94;4976793;28;20019;-62
2022/11/27 06:17:28;;;;;;;5.57;3.50;;;;;;;4.05;100.00;102045.72;4987281;28;20101;-62
2022/11/27 06:19:54;;;;;;;6.40;3.20;;;;;;;4.06;100.00;102036.38;4990961;28;20026;-62
2022/11/27 06:22:19;;;;;;;9.03;3.30;;;;;;;4.08;100.00;102045.97;4992073;28;20018;-62
2022/11/27 06:24:44;;;;;;;6.33;3.43;;;;;;;4.10;100.00;102034.94;4991858;28;20026;-62
2022/11/27 06:27:10;;;;;;;7.83;3.10;;;;;;;4.10;100.00;102034.94;4991276;28;20485;-62
2022/11/27 06:29:36;;;;;;;9.07;3.97;;;;;;;4.12;100.00;102030.81;4991294;28;20022;-62
2022/11/27 06:32:02;;;;;;;9.27;3.30;;;;;;;4.12;100.00;102031.69;4992153;28;20027;-63
2022/11/27 06:34:27;;;;;;;8.43;3.37;;;;;;;4.13;100.00;102033.50;4990365;28;20093;-62
2022/11/27 06:36:52;;;;;;;7.93;3.20;;;;;;;4.15;100.00;102033.63;4990292;28;20045;-62
2022/11/27 06:39:17;;;;;;;9.13;3.47;;;;;;;4.16;100.00;102037.97;4988441;28;20031;-62
2022/11/27 06:41:43;;;;;;;9.13;3.87;;;;;;;4.17;100.00;102032.06;4989276;28;20018;-62
2022/11/27 06:44:09;;;;;;;6.67;3.83;;;;;;;4.18;100.00;102036.41;4990702;28;20051;-63
2022/11/27 06:46:34;;;;;;;7.60;3.30;;;;;;;4.19;100.00;102033.09;4983304;28;20118;-62
2022/11/27 06:49:00;;;;;;;6.77;2.90;;;;;;;4.20;100.00;102045.13;4985903;28;20113;-62
2022/11/27 06:51:27;;;;;;;7.53;3.50;;;;;;;4.22;100.00;102034.97;4991077;28;20026;-62
2022/11/27 06:53:53;;;;;;;6.07;3.60;;;;;;;4.22;100.00;102040.13;4989792;28;20037;-62
2022/11/27 06:56:21;;;;;;;7.27;3.70;;;;;;;4.22;100.00;102035.88;4990331;28;20022;-63
2022/11/27 06:58:50;;;;;;;8.30;3.93;;;;;;;4.21;100.00;102023.81;4989644;28;20394;-62
2022/11/27 07:01:16;;;;;;;6.50;3.63;;;;;;;4.18;100.00;102026.16;4990460;28;20463;-63
2022/11/27 07:03:42;;;;;;;5.93;3.93;;;;;;;4.19;100.00;102027.97;4989784;28;20026;-63
2022/11/27 07:06:10;;;;;;;9.27;3.67;;;;;;;4.19;100.00;102023.69;4990313;28;20053;-62
2022/11/27 07:08:35;;;;;;;8.10;4.07;;;;;;;4.18;100.00;102024.50;4988211;28;20118;-63
2022/11/27 07:11:04;;;;;;;7.93;3.90;;;;;;;4.18;100.00;102021.03;4988706;28;20559;-62
2022/11/27 07:13:29;;;;;;;7.87;4.47;;;;;;;4.16;100.00;102008.06;4987391;28;20038;-63
2022/11/27 07:15:59;;;;;;;8.90;4.00;;;;;;;4.14;100.00;102009.63;4988981;28;20490;-62
2022/11/27 07:18:24;;;;;;;10.20;4.50;;;;;;;4.14;100.00;101995.91;4987250;28;20485;-62
2022/11/27 07:20:51;;;;;;;12.23;5.30;;;;;;;4.13;100.00;102001.81;4988389;28;20030;-63
2022/11/27 07:23:16;;;;;;;9.37;4.70;;;;;;;4.12;100.00;101995.78;4987737;28;20089;-62
2022/11/27 07:25:41;;;;;;;8.63;4.73;;;;;;;4.12;100.00;101989.78;4987756;28;20034;-62
2022/11/27 07:28:07;;;;;;;10.77;4.77;;;;;;;4.09;100.00;101980.16;4987574;28;20022;-62
2022/11/27 07:30:32;;;;;;;12.37;4.77;;;;;;;4.06;100.00;101970.56;4985433;28;20478;-62
2022/11/27 07:33:00;;;;;;;11.73;4.70;;;;;;;4.07;100.00;101985.19;4986464;28;20030;-62
2022/11/27 07:35:25;;;;;;;8.17;4.50;;;;;;;4.07;100.00;101980.03;4986826;28;20022;-62
2022/11/27 07:37:51;;;;;;;9.50;4.87;;;;;;;4.06;100.00;101970.56;4984690;28;20029;-63
2022/11/27 07:40:17;;;;;;;8.63;4.70;;;;;;;4.05;100.00;101976.47;4988505;28;20022;-62
2022/11/27 07:42:42;;;;;;;8.27;4.73;;;;;;;4.06;100.00;101979.94;4988857;28;20077;-63
2022/11/27 07:45:08;;;;;;;11.00;4.97;;;;;;;4.05;100.00;101979.03;4989232;28;20562;-62
2022/11/27 07:47:34;;;;;;;12.13;5.30;;;;;;;4.03;100.00;101972.88;4988964;28;20073;-62
2022/11/27 07:49:59;;;;;;;9.20;5.13;;;;;;;4.02;100.00;101968.53;4988500;28;20470;-62
2022/11/27 07:52:29;;;;;;;9.33;5.33;;;;;;;4.01;100.00;101963.28;4987786;28;20447;-63
2022/11/27 07:54:57;;;;;;;11.63;6.17;;;;;;;3.99;100.00;101952.91;4987202;28;20081;-63
2022/11/27 07:57:22;;;;;;;8.90;5.73;;;;;;;4.00;100.00;101959.81;4969389;28;20298;-62
2022/11/27 07:59:48;;;;;;;12.53;5.73;;;;;;;4.00;100.00;101947.00;4990049;28;20022;-62
2022/11/27 08:02:14;;;;;;;9.90;5.80;;;;;;;4.00;100.00;101941.88;4988760;28;20061;-62
2022/11/27 08:04:39;;;;;;;10.73;6.17;;;;;;;3.99;100.00;101927.28;4986343;28;20101;-62
2022/11/27 08:07:04;;;;;;;10.23;6.27;;;;;;;4.01;100.00;101935.94;4987179;28;20027;-62
2022/11/27 08:09:30;;;;;;;11.73;6.27;;;;;;;4.00;100.00;101929.03;4987982;28;20030;-62
2022/11/27 08:11:55;;;;;;;13.80;6.23;;;;;;;3.99;100.00;101924.69;4988198;28;20033;-63
2022/11/27 08:14:20;;;;;;;9.13;6.40;;;;;;;4.00;100.00;101923.91;4987880;28;20026;-62
2022/11/27 08:16:46;;;;;;;11.43;6.80;;;;;;;4.00;100.00;101923.91;4987739;28;20033;-61
2022/11/27 08:19:14;;;;;;;9.40;6.27;;;;;;;4.01;100.00;101920.56;4988390;28;20025;-62
2022/11/27 08:21:40;;;;;;;9.73;6.20;;;;;;;4.02;100.00;101924.94;4988233;28;20477;-62
2022/11/27 08:24:05;;;;;;;13.40;7.03;;;;;;;4.00;100.00;101918.78;4986850;28;20055;-62
2022/11/27 08:26:30;;;;;;;11.17;6.97;;;;;;;4.02;100.00;101916.31;4987657;28;20101;-62
2022/11/27 08:28:56;;;;;;;14.07;6.80;;;;;;;4.04;100.00;101919.91;4988751;28;20371;-63
2022/11/27 08:31:22;;;;;;;10.80;7.23;;;;;;;4.04;100.00;101912.22;4987736;28;20463;-63
2022/11/27 08:33:47;;;;;;;11.47;6.57;;;;;;;4.07;100.00;101915.00;4988491;28;20058;-62
2022/11/27 08:36:12;;;;;;;8.90;6.40;;;;;;;4.10;100.00;101914.34;4987971;28;20033;-62
2022/11/27 08:38:38;;;;;;;12.90;6.87;;;;;;;4.13;100.00;101909.44;4988341;28;20568;-62
2022/11/27 08:41:05;;;;;;;10.73;7.47;;;;;;;4.16;100.00;101920.84;4988438;28;20484;-62
2022/11/27 08:43:31;;;;;;;13.73;7.97;;;;;;;4.19;100.00;101915.06;4988051;28;20578;-62
2022/11/27 08:45:57;;;;;;;12.80;7.87;;;;;;;4.17;100.00;101914.91;4987861;28;20042;-62
2022/11/27 08:48:23;;;;;;;14.03;7.80;;;;;;;4.20;100.00;101914.25;4988194;28;20073;-62
2022/11/27 08:50:49;;;;;;;11.43;7.33;;;;;;;4.24;100.00;101918.88;4987545;28;20138;-63
2022/11/27 08:53:15;;;;;;;13.80;8.90;;;;;;;4.26;100.00;101912.19;4981549;28;20066;-62
2022/11/27 08:55:41;;;;;;;14.03;7.87;;;;;;;4.29;100.00;101919.19;4986922;28;20026;-62
2022/11/27 08:58:06;;;;;;;15.70;7.80;;;;;;;4.30;100.00;101924.44;4987571;28;20021;-62
2022/11/27 09:00:33;;;;;;;13.40;8.47;;;;;;;4.33;100.00;101922.09;4986834;28;20027;-63
2022/11/27 09:02:59;;;;;;;15.27;8.20;;;;;;;4.36;100.00;101928.25;4986801;28;20027;-63
2022/11/27 09:05:25;;;;;;;15.63;8.97;;;;;;;4.37;100.00;101920.66;4988069;28;20025;-62
2022/11/27 09:07:50;;;;;;;12.17;8.20;;;;;;;4.39;100.00;101919.09;4987583;28;20124;-63
2022/11/27 09:10:15;;;;;;;17.07;8.80;;;;;;;4.41;100.00;101921.78;4985659;28;20030;-63
2022/11/27 09:12:43;;;;;;;13.83;8.07;;;;;;;4.43;100.00;101920.22;4985754;28;20057;-62
2022/11/27 09:15:09;;;;;;;12.13;8.63;;;;;;;4.47;100.00;101923.91;4986894;28;20026;-62
2022/11/27 09:17:35;;;;;;;11.63;8.07;;;;;;;4.49;100.00;101919.78;4986335;28;20029;-63
2022/11/27 09:20:00;;;;;;;13.80;7.57;;;;;;;4.53;100.00;101922.69;4986738;28;20031;-63
2022/11/27 09:22:26;;;;;;;12.27;8.17;;;;;;;4.55;100.00;101918.56;4986552;28;20513;-62
2022/11/27 09:24:51;;;;;;;12.50;8.37;;;;;;;4.57;100.00;101923.81;4986247;28;20030;-62
2022/11/27 09:27:16;;;;;;;12.23;7.40;;;;;;;4.60;100.00;101918.03;4985141;28;20022;-62
2022/11/27 09:29:42;;;;;;;13.00;8.13;;;;;;;4.61;100.00;101919.78;4985633;28;20465;-62
2022/11/27 09:32:07;;;;;;;11.95;8.57;;;;;;;4.63;100.00;101918.25;4986366;28;20105;-62
2022/11/27 09:34:32;;;;;;;14.10;7.90;;;;;;;4.64;100.00;101917.47;4985968;28;20026;-62
2022/11/27 09:36:57;;;;;;;12.52;8.10;;;;;;;4.66;100.00;101921.94;4986653;28;20117;-63
2022/11/27 09:39:25;;;;;;;12.77;8.63;;;;;;;4.67;100.00;101923.72;4985196;28;20018;-63
2022/11/27 09:41:53;;;;;;;12.07;7.45;;;;;;;4.68;100.00;101917.81;4985281;28;20034;-63
2022/11/27 09:44:47;;;;;;;12.90;8.43;;;;;;;4.72;100.00;101924.06;4985223;28;20046;-62
2022/11/27 09:47:20;;;;;;;15.27;9.10;;;;;;;4.73;100.00;101918.13;4984652;28;20022;-62
2022/11/27 09:50:02;;;;;;;12.87;8.37;;;;;;;4.76;100.00;101914.91;4984767;28;20112;-62
2022/11/27 09:52:41;;;;;;;10.38;7.95;;;;;;;4.76;100.00;101913.25;4984733;28;20026;-62
2022/11/27 09:55:30;;;;;;;13.30;8.70;;;;;;;4.78;100.00;101908.22;4984990;28;20029;-62
2022/11/27 09:58:14;;;;;;;11.77;8.80;;;;;;;4.82;100.00;101904.19;4984915;28;20356;-62
2022/11/27 10:00:40;;;;;;;12.17;7.90;;;;;;;4.84;100.00;101897.50;4984962;28;20026;-63
2022/11/27 10:03:12;;;;;;;13.43;8.50;;;;;;;4.86;100.00;101895.91;4983744;28;20033;-62
2022/11/27 10:05:57;;;;;;;15.90;8.43;;;;;;;4.87;100.00;101885.78;4982936;28;20081;-63
2022/11/27 10:08:36;;;;;;;12.77;8.73;;;;;;;4.89;100.00;101885.88;4984362;28;20045;-63
2022/11/27 10:11:26;;;;;;;13.00;8.65;;;;;;;4.89;100.00;101880.75;4984177;28;21252;-62
2022/11/27 10:14:09;;;;;;;11.45;8.27;;;;;;;4.90;100.00;101883.41;4983047;28;20471;-63
2022/11/27 10:16:46;;;;;;;14.27;8.82;;;;;;;4.90;100.00;101877.38;4984535;28;20025;-63
2022/11/27 10:19:29;;;;;;;14.02;9.23;;;;;;;4.92;100.00;101871.56;4983390;28;20032;-62
2022/11/27 10:22:12;;;;;;;11.93;9.15;;;;;;;4.94;100.00;101869.13;4983994;28;20117;-63
2022/11/27 10:24:59;;;;;;;11.98;9.15;;;;;;;4.96;100.00;101857.28;4984727;28;20026;-63
2022/11/27 10:27:36;;;;;;;12.50;8.85;;;;;;;4.98;100.00;101852.25;4984808;28;20138;-63
2022/11/27 10:30:11;;;;;;;12.15;8.05;;;;;;;4.99;100.00;101848.88;4983718;28;20121;-63
2022/11/27 10:32:38;;;;;;;12.48;8.05;;;;;;;4.99;100.00;101852.34;4984938;28;20030;-63
2022/11/27 10:35:08;;;;;;;14.50;9.23;;;;;;;5.01;100.00;101849.88;4984877;28;20034;-62
2022/11/27 10:38:02;;;;;;;15.88;10.45;;;;;;;5.02;100.00;101849.09;4985999;28;20026;-63
2022/11/27 10:41:00;;;;;;;13.00;9.70;;;;;;;5.04;100.00;101837.25;4983686;28;20031;-63
2022/11/27 10:43:25;;;;;;;12.82;8.93;;;;;;;5.05;100.00;101836.47;4980429;28;20042;-63
2022/11/27 10:45:56;;;;;;;17.80;9.60;;;;;;;5.04;100.00;101825.31;4985933;28;20053;-62
2022/11/27 10:48:22;;;;;;;12.77;8.32;;;;;;;5.06;100.00;101827.97;4985681;28;20054;-62
2022/11/27 10:50:48;;;;;;;13.32;9.38;;;;;;;5.09;100.00;101827.31;4985569;28;20030;-62
2022/11/27 10:53:44;;;;;;;12.45;9.00;;;;;;;5.11;100.00;101830.88;4987118;28;20463;-62
2022/11/27 10:56:13;;;;;;;14.40;10.23;;;;;;;5.15;100.00;101830.28;4984679;28;20030;-62
2022/11/27 10:59:01;;;;;;;15.38;10.45;;;;;;;5.17;100.00;101815.88;4984115;28;20030;-63
2022/11/27 11:01:39;;;;;;;12.20;9.00;;;;;;;5.19;100.00;101810.84;4981766;28;20026;-63
2022/11/27 11:04:06;;;;;;;12.10;9.38;;;;;;;5.20;100.00;101804.94;4984107;28;20022;-63
2022/11/27 11:06:37;;;;;;;14.02;9.35;;;;;;;5.22;100.00;101806.81;4987362;28;20114;-63
2022/11/27 11:09:04;;;;;;;;;;;;;;;5.22;100.00;101798.19;4989073;28;20471;-63
2022/11/27 11:11:30;;;;;;;12.38;8.68;;;;;;;5.24;100.00;101796.63;4987783;28;19956;-62
2022/11/27 11:13:55;;;;;;;11.55;9.43;;;;;;;5.25;100.00;101799.31;4988384;28;20537;-62
2022/11/27 11:16:22;;;;;;;12.50;9.32;;;;;;;5.25;100.00;101794.16;4988160;28;20026;-63
2022/11/27 11:18:53;;;;;;;11.05;9.35;;;;;;;5.24;100.00;101779.53;4988808;28;20029;-63
2022/11/27 11:21:39;;;;;;;11.70;9.57;;;;;;;5.27;100.00;101777.19;4989223;28;20065;-63
2022/11/27 11:24:14;;;;;;;13.85;9.32;;;;;;;5.27;100.00;101776.31;4989855;28;20069;-62
2022/11/27 11:26:45;;;;;;;12.50;8.88;;;;;;;5.29;100.00;101767.91;4986729;28;20062;-63
2022/11/27 11:29:25;;;;;;;10.68;9.07;;;;;;;5.33;100.00;101763.84;4990046;28;20053;-63